Terminal Aerodrome Forecast
Issued by NWS Tulsa, OK

Home | Current Version | Previous Version | Text Only | Print | Product List | Glossary On
Versions: 1 2 3 4 5 6 7 8 9 10 11 12 13 14 15 16
327
FTUS44 KTSA 050532
TAFFSM
TAF
KFSM 050532Z 0506/0606 VRB02KT 6SM BR BKN200
     FM050900 VRB02KT 4SM BR FEW003 BKN200
     FM051400 11005KT P6SM SCT030 BKN080
     FM052200 09007KT P6SM VCSH BKN025
     FM060000 08004KT 5SM -RA BR OVC015=

USA.gov is the U.S. government's official web portal to all federal, state and local government web resources and services.